createdAt,value
2022-10-23T00:00:33.360Z,100.00
2022-10-23T00:04:09.495Z,100.00
2022-10-23T00:07:11.978Z,100.00
2022-10-23T00:10:13.919Z,100.00
2022-10-23T00:13:15.649Z,100.00
2022-10-23T00:16:17.447Z,100.00
2022-10-23T00:19:19.460Z,100.00
2022-10-23T00:22:21.193Z,100.00
2022-10-23T00:25:23.136Z,100.00
2022-10-23T00:28:25.271Z,100.00
2022-10-23T00:31:26.983Z,100.00
2022-10-23T00:34:28.758Z,100.00
2022-10-23T00:37:30.644Z,100.00
2022-10-23T00:40:32.401Z,100.00
2022-10-23T00:43:35.228Z,100.00
2022-10-23T00:46:38.477Z,100.00
2022-10-23T00:49:42.835Z,100.00
2022-10-23T00:52:51.130Z,100.00
2022-10-23T00:55:54.261Z,100.00
2022-10-23T00:58:56.046Z,100.00
2022-10-23T01:01:58.959Z,100.00
2022-10-23T01:05:00.974Z,100.00
2022-10-23T01:08:08.064Z,100.00
2022-10-23T01:11:12.775Z,100.00
2022-10-23T01:14:23.497Z,100.00
2022-10-23T01:17:34.479Z,100.00
2022-10-23T01:20:45.675Z,100.00
2022-10-23T01:24:02.932Z,100.00
2022-10-23T01:27:21.024Z,100.00
2022-10-23T01:30:22.760Z,100.00
2022-10-23T01:33:27.986Z,100.00
2022-10-23T01:36:30.448Z,100.00
2022-10-23T01:39:39.061Z,100.00
2022-10-23T01:42:46.683Z,100.00
2022-10-23T01:45:51.792Z,100.00
2022-10-23T01:48:55.595Z,100.00
2022-10-23T01:52:00.620Z,100.00
2022-10-23T01:55:02.479Z,100.00
2022-10-23T01:58:05.082Z,100.00
2022-10-23T02:01:08.411Z,100.00
2022-10-23T02:04:13.059Z,100.00
2022-10-23T02:07:14.875Z,100.00
2022-10-23T02:10:17.933Z,100.00
2022-10-23T02:13:26.538Z,100.00
2022-10-23T02:16:42.482Z,100.00
2022-10-23T02:19:50.147Z,100.00
2022-10-23T02:23:00.751Z,100.00
2022-10-23T02:26:15.179Z,100.00
2022-10-23T02:29:23.505Z,100.00
2022-10-23T02:32:27.631Z,100.00
2022-10-23T02:35:29.437Z,100.00
2022-10-23T02:38:37.419Z,100.00
2022-10-23T02:41:42.216Z,100.00
2022-10-23T02:44:43.865Z,100.00
2022-10-23T02:47:53.058Z,100.00
2022-10-23T02:51:04.396Z,100.00
2022-10-23T02:54:12.215Z,100.00
2022-10-23T02:57:31.544Z,100.00
2022-10-23T03:00:34.248Z,100.00
2022-10-23T03:03:40.249Z,100.00
2022-10-23T03:06:42.051Z,100.00
2022-10-23T03:09:43.899Z,100.00
2022-10-23T03:12:47.168Z,100.00
2022-10-23T03:15:48.981Z,100.00
2022-10-23T03:18:50.779Z,100.00
2022-10-23T03:21:52.451Z,100.00
2022-10-23T03:24:54.184Z,100.00
2022-10-23T03:27:56.122Z,100.00
2022-10-23T03:30:57.950Z,100.00
2022-10-23T03:33:59.830Z,100.00
2022-10-23T03:37:01.601Z,100.00
2022-10-23T03:40:04.622Z,100.00
2022-10-23T03:43:06.498Z,100.00
2022-10-23T03:46:12.540Z,100.00
2022-10-23T03:49:14.451Z,100.00
2022-10-23T03:52:16.190Z,100.00
2022-10-23T03:55:18.093Z,100.00
2022-10-23T03:58:19.954Z,100.00
2022-10-23T04:01:21.869Z,100.00
2022-10-23T04:04:26.907Z,100.00
2022-10-23T04:07:28.671Z,100.00
2022-10-23T04:10:30.593Z,100.00
2022-10-23T04:13:32.349Z,100.00
2022-10-23T04:16:34.127Z,100.00
2022-10-23T04:19:35.831Z,100.00
2022-10-23T04:22:37.630Z,100.00
2022-10-23T04:25:39.360Z,100.00
2022-10-23T04:28:41.244Z,100.00
2022-10-23T04:31:43.094Z,100.00
2022-10-23T04:34:45.090Z,100.00
2022-10-23T04:37:47.225Z,100.00
2022-10-23T04:40:49.082Z,100.00
2022-10-23T04:43:50.924Z,100.00
2022-10-23T04:46:52.675Z,100.00
2022-10-23T04:49:54.327Z,100.00
2022-10-23T04:52:57.034Z,100.00
2022-10-23T04:55:59.594Z,100.00
2022-10-23T04:59:02.509Z,100.00
2022-10-23T05:02:04.393Z,100.00
2022-10-23T05:05:08.424Z,100.00
2022-10-23T05:08:13.201Z,100.00
2022-10-23T05:11:17.705Z,100.00
2022-10-23T05:14:22.685Z,100.00
2022-10-23T05:17:35.844Z,100.00
2022-10-23T05:20:38.031Z,100.00
2022-10-23T05:23:41.535Z,100.00
2022-10-23T05:26:43.452Z,100.00
2022-10-23T05:29:45.261Z,100.00
2022-10-23T05:32:47.200Z,100.00
2022-10-23T05:35:48.911Z,100.00
2022-10-23T05:38:51.195Z,100.00
2022-10-23T05:41:53.065Z,100.00
2022-10-23T05:44:54.835Z,100.00
2022-10-23T05:48:05.755Z,100.00
2022-10-23T05:51:23.488Z,100.00
2022-10-23T05:54:25.240Z,100.00
2022-10-23T05:57:26.978Z,100.00
2022-10-23T06:00:29.231Z,100.00
2022-10-23T06:03:30.938Z,100.00
2022-10-23T06:06:32.821Z,100.00
2022-10-23T06:09:34.527Z,100.00
2022-10-23T06:12:36.435Z,100.00
2022-10-23T06:15:38.467Z,100.00
2022-10-23T06:18:40.543Z,100.00
2022-10-23T06:21:42.572Z,100.00
2022-10-23T06:24:44.338Z,100.00
2022-10-23T06:27:46.133Z,100.00
2022-10-23T06:30:48.085Z,100.00
2022-10-23T06:33:49.781Z,100.00
2022-10-23T06:36:51.490Z,100.00
2022-10-23T06:39:53.479Z,100.00
2022-10-23T06:42:56.333Z,100.00
2022-10-23T06:46:01.876Z,100.00
2022-10-23T06:49:04.075Z,100.00
2022-10-23T06:52:11.045Z,100.00
2022-10-23T06:55:20.535Z,100.00
2022-10-23T06:58:22.307Z,100.00
2022-10-23T07:01:24.131Z,100.00
2022-10-23T07:04:26.198Z,100.00
2022-10-23T07:07:30.540Z,100.00
2022-10-23T07:10:32.387Z,100.00
2022-10-23T07:13:36.183Z,100.00
2022-10-23T07:16:37.937Z,100.00
2022-10-23T07:19:39.745Z,100.00
2022-10-23T07:22:41.779Z,100.00
2022-10-23T07:25:43.863Z,100.00
2022-10-23T07:28:47.279Z,100.00
2022-10-23T07:31:49.070Z,100.00
2022-10-23T07:34:50.945Z,100.00
2022-10-23T07:37:52.613Z,100.00
2022-10-23T07:40:57.856Z,100.00
2022-10-23T07:43:59.644Z,100.00
2022-10-23T07:47:01.431Z,100.00
2022-10-23T07:50:03.407Z,100.00
2022-10-23T07:53:05.326Z,100.00
2022-10-23T07:56:21.171Z,100.00
2022-10-23T07:59:22.932Z,100.00
2022-10-23T08:02:24.641Z,100.00
2022-10-23T08:05:26.472Z,100.00
2022-10-23T08:08:28.352Z,100.00
2022-10-23T08:11:35.360Z,100.00
2022-10-23T08:14:37.198Z,100.00
2022-10-23T08:17:39.399Z,100.00
2022-10-23T08:20:42.437Z,100.00
2022-10-23T08:23:44.851Z,99.56
2022-10-23T08:26:46.605Z,98.05
2022-10-23T08:29:48.386Z,97.89
2022-10-23T08:32:50.118Z,96.98
2022-10-23T08:35:52.001Z,96.32
2022-10-23T08:38:55.466Z,96.01
2022-10-23T08:41:57.381Z,95.26
2022-10-23T08:45:08.035Z,95.87
2022-10-23T08:48:31.104Z,95.99
2022-10-23T08:51:43.962Z,93.92
2022-10-23T08:55:03.309Z,92.86
2022-10-23T08:58:16.260Z,93.48
2022-10-23T09:01:42.920Z,94.06
2022-10-23T09:04:47.013Z,94.32
2022-10-23T09:07:51.441Z,93.99
2022-10-23T09:11:12.981Z,93.44
2022-10-23T09:14:36.467Z,92.57
2022-10-23T09:17:41.376Z,92.10
2022-10-23T09:20:46.170Z,91.60
2022-10-23T09:23:47.941Z,90.08
2022-10-23T09:26:52.366Z,88.72
2022-10-23T09:29:56.066Z,87.34
2022-10-23T09:32:58.899Z,85.95
2022-10-23T09:36:03.734Z,86.16
2022-10-23T09:39:05.501Z,85.06
2022-10-23T09:42:36.528Z,85.57
2022-10-23T09:45:41.879Z,84.36
2022-10-23T09:48:43.683Z,82.49
2022-10-23T09:52:08.741Z,81.59
2022-10-23T09:55:36.950Z,83.67
2022-10-23T09:58:54.136Z,83.16
2022-10-23T10:01:58.822Z,84.45
2022-10-23T10:05:20.156Z,85.97
2022-10-23T10:08:32.808Z,83.18
2022-10-23T10:11:54.601Z,83.55
2022-10-23T10:15:02.516Z,81.55
2022-10-23T10:18:18.241Z,81.60
2022-10-23T10:21:32.530Z,80.27
2022-10-23T10:24:56.139Z,78.74
2022-10-23T10:28:12.975Z,78.94
2022-10-23T10:31:26.935Z,78.79
2022-10-23T10:34:43.767Z,78.39
2022-10-23T10:38:03.254Z,77.78
2022-10-23T10:41:40.816Z,76.09
2022-10-23T10:45:11.579Z,76.54
2022-10-23T10:48:35.986Z,77.45
2022-10-23T10:51:47.080Z,77.18
2022-10-23T10:55:04.074Z,76.32
2022-10-23T10:58:42.783Z,76.53
2022-10-23T11:02:00.978Z,76.27
2022-10-23T11:05:11.155Z,78.42
2022-10-23T11:08:13.794Z,80.01
2022-10-23T11:11:27.186Z,78.38
2022-10-23T11:14:33.379Z,76.68
2022-10-23T11:17:40.160Z,76.49
2022-10-23T11:20:55.997Z,75.31
2022-10-23T11:24:14.813Z,75.66
2022-10-23T11:27:23.303Z,74.47
2022-10-23T11:30:40.353Z,75.42
2022-10-23T11:34:01.153Z,75.48
2022-10-23T11:37:05.015Z,76.12
2022-10-23T11:40:06.747Z,76.77
2022-10-23T11:43:09.346Z,76.74
2022-10-23T11:46:31.775Z,77.69
2022-10-23T11:49:33.588Z,78.13
2022-10-23T11:53:23.032Z,77.93
2022-10-23T11:56:17.020Z,78.42
2022-10-23T11:59:30.721Z,79.42
2022-10-23T12:02:39.787Z,79.44
2022-10-23T12:05:42.427Z,79.16
2022-10-23T12:08:44.456Z,79.70
2022-10-23T12:12:02.282Z,79.96
2022-10-23T12:15:16.109Z,79.83
2022-10-23T12:18:18.127Z,79.35
2022-10-23T12:21:22.899Z,79.60
2022-10-23T12:24:52.083Z,79.85
2022-10-23T12:28:02.635Z,79.63
2022-10-23T12:31:07.547Z,79.67
2022-10-23T12:34:33.464Z,79.69
2022-10-23T12:38:00.197Z,78.78
2022-10-23T12:41:21.292Z,78.93
2022-10-23T12:44:25.485Z,79.39
2022-10-23T12:47:27.562Z,79.65
2022-10-23T12:50:31.375Z,79.79
2022-10-23T12:53:33.239Z,79.33
2022-10-23T12:56:36.489Z,79.03
2022-10-23T12:59:39.280Z,79.31
2022-10-23T13:02:41.330Z,79.60
2022-10-23T13:05:43.550Z,79.59
2022-10-23T13:08:47.778Z,79.28
2022-10-23T13:11:51.184Z,79.04
2022-10-23T13:15:08.491Z,79.05
2022-10-23T13:18:14.256Z,78.58
2022-10-23T13:21:22.564Z,78.61
2022-10-23T13:24:27.223Z,78.71
2022-10-23T13:27:34.000Z,78.45
2022-10-23T13:30:39.150Z,78.27
2022-10-23T13:33:43.290Z,78.24
2022-10-23T13:36:58.124Z,78.23
2022-10-23T13:40:05.065Z,78.36
2022-10-23T13:43:14.749Z,78.10
2022-10-23T13:46:18.523Z,78.09
2022-10-23T13:49:20.838Z,78.17
2022-10-23T13:52:23.898Z,78.29
2022-10-23T13:55:26.299Z,78.43
2022-10-23T13:58:28.044Z,78.47
2022-10-23T14:01:33.820Z,78.60
2022-10-23T14:04:35.570Z,78.82
2022-10-23T14:07:37.419Z,78.92
2022-10-23T14:10:39.075Z,78.86
2022-10-23T14:13:41.299Z,79.14
2022-10-23T14:16:43.137Z,79.04
2022-10-23T14:19:45.801Z,79.05
2022-10-23T14:22:47.885Z,79.26
2022-10-23T14:25:49.846Z,79.35
2022-10-23T14:28:56.413Z,79.39
2022-10-23T14:31:59.453Z,79.37
2022-10-23T14:35:04.154Z,79.41
2022-10-23T14:38:06.044Z,79.53
2022-10-23T14:41:16.275Z,79.64
2022-10-23T14:44:18.002Z,79.95
2022-10-23T14:47:19.955Z,79.86
2022-10-23T14:50:21.958Z,79.89
2022-10-23T14:53:23.671Z,79.97
2022-10-23T14:56:25.717Z,79.98
2022-10-23T14:59:27.637Z,80.14
2022-10-23T15:02:29.407Z,80.24
2022-10-23T15:05:31.108Z,80.49
2022-10-23T15:08:33.183Z,80.79
2022-10-23T15:11:34.904Z,81.05
2022-10-23T15:14:36.705Z,81.28
2022-10-23T15:17:39.323Z,81.37
2022-10-23T15:20:41.060Z,81.45
2022-10-23T15:23:44.365Z,81.66
2022-10-23T15:26:46.647Z,81.60
2022-10-23T15:29:48.480Z,81.57
2022-10-23T15:32:50.217Z,81.69
2022-10-23T15:35:52.561Z,81.76
2022-10-23T15:38:54.288Z,82.03
2022-10-23T15:41:57.090Z,82.47
2022-10-23T15:44:58.851Z,82.84
2022-10-23T15:48:00.659Z,82.89
2022-10-23T15:51:02.447Z,83.00
2022-10-23T15:54:06.351Z,82.54
2022-10-23T15:57:08.095Z,82.78
2022-10-23T16:00:14.793Z,83.71
2022-10-23T16:03:17.801Z,84.21
2022-10-23T16:06:20.608Z,84.32
2022-10-23T16:09:22.527Z,84.51
2022-10-23T16:12:24.851Z,84.58
2022-10-23T16:15:26.744Z,84.77
2022-10-23T16:18:28.953Z,84.65
2022-10-23T16:21:33.289Z,84.75
2022-10-23T16:24:35.459Z,84.90
2022-10-23T16:27:37.249Z,85.08
2022-10-23T16:30:43.207Z,85.17
2022-10-23T16:33:45.052Z,85.62
2022-10-23T16:36:47.255Z,85.24
2022-10-23T16:39:48.910Z,85.36
2022-10-23T16:42:50.756Z,85.40
2022-10-23T16:46:10.735Z,85.52
2022-10-23T16:49:14.157Z,86.09
2022-10-23T16:52:15.841Z,86.27
2022-10-23T16:55:17.747Z,86.06
2022-10-23T16:58:19.419Z,86.24
2022-10-23T17:01:23.580Z,86.70
2022-10-23T17:04:25.446Z,87.21
2022-10-23T17:07:27.266Z,87.49
2022-10-23T17:10:29.059Z,87.79
2022-10-23T17:13:30.794Z,87.62
2022-10-23T17:16:37.454Z,87.68
2022-10-23T17:19:46.008Z,87.93
2022-10-23T17:22:48.598Z,88.21
2022-10-23T17:25:50.351Z,87.76
2022-10-23T17:28:52.634Z,88.13
2022-10-23T17:31:54.698Z,88.27
2022-10-23T17:34:56.394Z,88.35
2022-10-23T17:37:58.420Z,88.85
2022-10-23T17:41:00.184Z,89.02
2022-10-23T17:44:02.034Z,89.19
2022-10-23T17:47:03.784Z,89.11
2022-10-23T17:50:09.565Z,88.87
2022-10-23T17:53:11.354Z,89.00
2022-10-23T17:56:19.284Z,89.12
2022-10-23T17:59:21.066Z,89.47
2022-10-23T18:02:23.083Z,89.67
2022-10-23T18:05:24.912Z,89.87
2022-10-23T18:08:26.938Z,89.82
2022-10-23T18:11:33.723Z,89.97
2022-10-23T18:14:37.532Z,90.13
2022-10-23T18:17:39.620Z,90.15
2022-10-23T18:20:42.047Z,90.50
2022-10-23T18:23:44.635Z,90.25
2022-10-23T18:26:48.269Z,89.05
2022-10-23T18:29:51.096Z,88.61
2022-10-23T18:32:52.888Z,88.35
2022-10-23T18:35:54.592Z,89.55
2022-10-23T18:38:56.521Z,90.58
2022-10-23T18:41:58.889Z,90.30
2022-10-23T18:45:01.063Z,89.50
2022-10-23T18:48:03.489Z,89.62
2022-10-23T18:51:05.738Z,89.81
2022-10-23T18:54:10.692Z,90.09
2022-10-23T18:57:12.480Z,90.53
2022-10-23T19:00:14.591Z,90.26
2022-10-23T19:03:16.621Z,90.40
2022-10-23T19:06:19.108Z,90.43
2022-10-23T19:09:20.808Z,90.48
2022-10-23T19:12:23.281Z,91.15
2022-10-23T19:15:25.175Z,91.00
2022-10-23T19:18:26.940Z,90.58
2022-10-23T19:21:31.890Z,90.98
2022-10-23T19:24:39.458Z,91.24
2022-10-23T19:27:42.382Z,91.09
2022-10-23T19:30:44.087Z,91.71
2022-10-23T19:33:45.854Z,91.72
2022-10-23T19:36:48.563Z,91.80
2022-10-23T19:39:50.313Z,92.16
2022-10-23T19:42:54.288Z,91.34
2022-10-23T19:45:56.134Z,91.84
2022-10-23T19:48:57.893Z,92.14
2022-10-23T19:51:59.623Z,92.06
2022-10-23T19:55:03.403Z,92.05
2022-10-23T19:58:05.503Z,91.52
2022-10-23T20:01:12.515Z,90.83
2022-10-23T20:04:14.927Z,90.63
2022-10-23T20:07:17.073Z,91.24
2022-10-23T20:10:19.038Z,91.11
2022-10-23T20:13:21.343Z,91.03
2022-10-23T20:16:29.125Z,91.64
2022-10-23T20:19:30.832Z,92.11
2022-10-23T20:22:32.550Z,92.43
2022-10-23T20:25:34.236Z,92.23
2022-10-23T20:28:36.084Z,92.24
2022-10-23T20:31:39.531Z,92.46
2022-10-23T20:34:42.050Z,93.48
2022-10-23T20:37:43.864Z,93.41
2022-10-23T20:40:46.184Z,93.35
2022-10-23T20:43:48.565Z,93.37
2022-10-23T20:46:50.525Z,93.44
2022-10-23T20:49:52.419Z,93.85
2022-10-23T20:52:54.164Z,93.84
2022-10-23T20:55:56.011Z,94.15
2022-10-23T20:58:59.370Z,94.07
2022-10-23T21:02:01.199Z,94.27
2022-10-23T21:05:03.044Z,94.26
2022-10-23T21:08:05.020Z,94.47
2022-10-23T21:11:08.542Z,94.16
2022-10-23T21:14:10.278Z,93.41
2022-10-23T21:17:16.908Z,93.15
2022-10-23T21:20:18.622Z,93.59
2022-10-23T21:23:21.734Z,93.72
2022-10-23T21:26:24.246Z,93.73
2022-10-23T21:29:25.959Z,94.11
2022-10-23T21:32:27.694Z,93.82
2022-10-23T21:35:30.191Z,93.68
2022-10-23T21:38:32.162Z,93.96
2022-10-23T21:41:34.654Z,94.28
2022-10-23T21:44:36.520Z,94.21
2022-10-23T21:47:38.555Z,94.27
2022-10-23T21:50:40.389Z,94.35
2022-10-23T21:53:42.126Z,94.60
2022-10-23T21:56:45.599Z,94.24
2022-10-23T21:59:48.155Z,94.52
2022-10-23T22:02:50.029Z,94.56
2022-10-23T22:05:52.205Z,94.48
2022-10-23T22:08:55.727Z,94.56
2022-10-23T22:12:00.044Z,94.56
2022-10-23T22:15:02.099Z,94.44
2022-10-23T22:18:03.899Z,94.56
2022-10-23T22:21:09.332Z,94.44
2022-10-23T22:24:12.005Z,94.51
2022-10-23T22:27:13.723Z,94.69
2022-10-23T22:30:15.821Z,94.82
2022-10-23T22:33:17.484Z,94.87
2022-10-23T22:36:19.161Z,94.94
2022-10-23T22:39:21.269Z,94.96
2022-10-23T22:42:23.081Z,95.02
2022-10-23T22:45:24.843Z,94.96
2022-10-23T22:48:27.774Z,95.14
2022-10-23T22:51:30.066Z,95.16
2022-10-23T22:54:32.312Z,95.41
2022-10-23T22:57:34.249Z,95.35
2022-10-23T23:00:42.742Z,95.47
2022-10-23T23:03:46.387Z,95.88
2022-10-23T23:07:10.048Z,96.12
2022-10-23T23:10:26.435Z,95.84
2022-10-23T23:13:29.223Z,95.80
2022-10-23T23:16:32.249Z,95.76
2022-10-23T23:19:34.625Z,95.97
2022-10-23T23:22:36.629Z,95.90
2022-10-23T23:25:50.199Z,95.99
2022-10-23T23:28:53.902Z,96.10
2022-10-23T23:31:55.894Z,96.03
2022-10-23T23:34:59.520Z,96.20
2022-10-23T23:38:01.468Z,96.17
2022-10-23T23:41:04.823Z,96.14
2022-10-23T23:44:08.509Z,96.08
2022-10-23T23:47:10.366Z,96.05
2022-10-23T23:50:12.553Z,96.01
2022-10-23T23:53:14.464Z,96.14
2022-10-23T23:56:16.709Z,96.35
2022-10-23T23:59:18.433Z,96.45
